Time;durP1;ratioP1;P1;durP2;ratioP2;P2;SDS_P1;SDS_P2;PMS_P1;PMS_P2;Temp;Humidity;BMP_temperature;BMP_pressure;BME280_temperature;BME280_humidity;BME280_pressure;Samples;Min_cycle;Max_cycle;Signal;HPM_P1;HPM_P2
2023/03/09 00:00:50;;;;;;;4.88;2.70;;;;;;;9.10;45.41;94326.72;5089867;28;20046;-75
2023/03/09 00:03:16;;;;;;;4.57;2.88;;;;;;;9.13;45.50;94325.09;5105803;28;20015;-75
2023/03/09 00:05:55;;;;;;;5.22;2.80;;;;;;;9.07;45.49;94308.44;5106653;28;20073;-75
2023/03/09 00:08:20;;;;;;;5.57;2.90;;;;;;;9.09;45.66;94314.25;5087154;28;20391;-76
2023/03/09 00:10:50;;;;;;;6.13;2.67;;;;;;;9.07;45.65;94315.91;5105973;28;20035;-76
2023/03/09 00:13:16;;;;;;;6.80;3.30;;;;;;;9.07;45.54;94316.66;5105722;28;20087;-74
2023/03/09 00:15:41;;;;;;;4.68;3.10;;;;;;;9.02;45.64;94312.50;5106304;28;20027;-75
2023/03/09 00:18:06;;;;;;;7.97;3.17;;;;;;;8.98;45.70;94314.59;5106198;28;20047;-75
2023/03/09 00:20:32;;;;;;;7.00;3.13;;;;;;;8.92;45.74;94313.59;5103755;28;20020;-75
2023/03/09 00:22:57;;;;;;;5.78;3.58;;;;;;;8.87;46.00;94299.69;5107622;28;20016;-75
2023/03/09 00:25:23;;;;;;;4.95;3.17;;;;;;;8.82;45.78;94295.53;5103668;28;20527;-75
2023/03/09 00:27:50;;;;;;;5.18;3.05;;;;;;;8.91;45.93;94303.09;5105780;28;20027;-75
2023/03/09 00:30:16;;;;;;;7.15;2.97;;;;;;;8.93;45.72;94300.66;5104671;28;20019;-75
2023/03/09 00:32:41;;;;;;;6.47;2.88;;;;;;;8.92;45.84;94296.41;5104633;28;20024;-75
2023/03/09 00:35:08;;;;;;;7.25;3.72;;;;;;;9.01;45.75;94307.47;5088573;28;20024;-74
2023/03/09 00:37:34;;;;;;;6.53;3.08;;;;;;;8.95;45.69;94295.53;5104680;28;20034;-76
2023/03/09 00:40:00;;;;;;;5.22;3.10;;;;;;;8.97;45.55;94282.13;5105696;28;20016;-75
2023/03/09 00:42:25;;;;;;;4.60;2.92;;;;;;;8.92;45.80;94285.44;5102940;28;20104;-76
2023/03/09 00:44:51;;;;;;;5.05;2.50;;;;;;;8.73;46.14;94282.50;5105868;28;20084;-75
2023/03/09 00:47:18;;;;;;;4.35;2.30;;;;;;;8.62;46.28;94293.03;5103786;28;20032;-75
2023/03/09 00:49:45;;;;;;;5.13;2.42;;;;;;;8.55;46.61;94270.59;5104742;28;20513;-75
2023/03/09 00:52:10;;;;;;;4.13;2.80;;;;;;;8.56;46.57;94274.84;5106305;28;20023;-75
2023/03/09 00:54:36;;;;;;;4.22;2.63;;;;;;;8.64;46.52;94276.16;5103691;28;20504;-77
2023/03/09 00:57:01;;;;;;;5.60;2.70;;;;;;;8.69;46.52;94281.84;5105467;28;20107;-75
2023/03/09 00:59:27;;;;;;;4.25;2.42;;;;;;;8.67;46.67;94278.78;5103074;28;20036;-74
2023/03/09 01:01:52;;;;;;;5.00;2.47;;;;;;;8.60;46.80;94279.03;5105314;28;20035;-75
2023/03/09 01:04:18;;;;;;;6.20;3.38;;;;;;;8.59;46.66;94271.22;5103286;28;20028;-75
2023/03/09 01:06:43;;;;;;;6.68;3.45;;;;;;;8.43;46.77;94255.66;5104877;28;20488;-74
2023/03/09 01:09:09;;;;;;;4.57;2.40;;;;;;;8.62;46.92;94295.78;5104946;28;20060;-75
2023/03/09 01:11:35;;;;;;;5.20;3.03;;;;;;;8.48;46.83;94279.78;5103736;28;20028;-74
2023/03/09 01:14:01;;;;;;;3.85;2.45;;;;;;;8.51;46.79;94276.16;5106229;28;20051;-74
2023/03/09 01:16:26;;;;;;;4.47;2.45;;;;;;;8.60;46.85;94272.75;5086031;28;20066;-75
2023/03/09 01:18:52;;;;;;;6.95;2.85;;;;;;;8.68;47.04;94280.31;5105330;28;20016;-76
2023/03/09 01:21:18;;;;;;;4.78;2.47;;;;;;;8.63;46.63;94260.94;5104273;28;20019;-75
2023/03/09 01:23:43;;;;;;;4.25;2.33;;;;;;;8.58;46.83;94253.25;5087663;28;20027;-75
2023/03/09 01:26:09;;;;;;;4.93;2.53;;;;;;;8.49;46.78;94251.19;5104511;28;20055;-74
2023/03/09 01:28:35;;;;;;;4.75;2.40;;;;;;;8.43;47.10;94245.50;5104348;28;20401;-75
2023/03/09 01:31:05;;;;;;;7.00;2.95;;;;;;;8.42;47.11;94251.41;5103866;28;20028;-74
2023/03/09 01:33:30;;;;;;;5.43;2.85;;;;;;;8.50;47.24;94255.47;5103096;28;20028;-75
2023/03/09 01:35:56;;;;;;;5.47;3.17;;;;;;;8.51;47.22;94263.22;5105910;28;20026;-75
2023/03/09 01:38:21;;;;;;;4.28;2.67;;;;;;;8.59;47.06;94252.03;5103522;28;20039;-76
2023/03/09 01:40:47;;;;;;;5.90;2.50;;;;;;;8.61;46.84;94244.94;5104387;28;20044;-76
2023/03/09 01:43:28;;;;;;;5.25;2.75;;;;;;;8.61;46.76;94244.94;5085627;28;20116;-75
2023/03/09 01:46:22;;;;;;;4.63;2.40;;;;;;;8.51;46.98;94229.59;5104368;28;20108;-75
2023/03/09 01:48:50;;;;;;;7.13;2.72;;;;;;;8.38;47.31;94234.34;5105452;28;20370;-76
2023/03/09 01:51:17;;;;;;;4.18;2.45;;;;;;;8.37;47.57;94233.56;5102486;28;20110;-75
2023/03/09 01:53:43;;;;;;;4.55;2.55;;;;;;;8.41;47.39;94231.47;5104172;28;20031;-74
2023/03/09 01:56:11;;;;;;;4.93;2.58;;;;;;;8.38;47.39;94239.81;5085267;28;20028;-75
2023/03/09 01:58:37;;;;;;;5.50;2.67;;;;;;;8.40;47.28;94234.66;5104783;28;20027;-74
2023/03/09 02:01:02;;;;;;;5.28;2.72;;;;;;;8.41;47.22;94250.63;5104562;28;20543;-74
2023/03/09 02:03:35;;;;;;;4.25;2.72;;;;;;;8.54;47.18;94244.38;5103553;28;20402;-76
2023/03/09 02:06:09;;;;;;;3.88;2.38;;;;;;;8.54;47.02;94233.41;5086955;28;20028;-75
2023/03/09 02:08:34;;;;;;;;;;;;;;;8.55;46.85;94251.41;5085515;28;20471;-75
2023/03/09 02:11:05;;;;;;;6.07;2.35;;;;;;;8.51;47.12;94255.03;5087099;28;19941;-75
2023/03/09 02:13:34;;;;;;;4.68;2.85;;;;;;;8.60;46.95;94248.09;5085232;28;20020;-74
2023/03/09 02:16:00;;;;;;;7.63;2.83;;;;;;;8.52;47.03;94250.31;5087015;28;20375;-76
2023/03/09 02:18:25;;;;;;;5.53;2.60;;;;;;;8.46;46.80;94241.09;5104844;28;20024;-75
2023/03/09 02:21:29;;;;;;;4.32;2.33;;;;;;;8.45;47.13;94256.00;5086063;28;20117;-75
2023/03/09 02:24:31;;;;;;;9.90;4.43;;;;;;;8.48;47.17;94249.63;5105745;28;20032;-75
2023/03/09 02:26:58;;;;;;;5.82;3.35;;;;;;;8.45;47.35;94223.16;5103797;28;20028;-74
2023/03/09 02:29:24;;;;;;;6.45;3.70;;;;;;;8.51;47.15;94254.25;5104762;28;20055;-76
2023/03/09 02:31:49;;;;;;;5.22;3.08;;;;;;;8.53;47.29;94251.81;5103673;28;20457;-75
2023/03/09 02:34:15;;;;;;;6.38;3.53;;;;;;;8.57;47.07;94257.22;5103795;28;20028;-74
2023/03/09 02:36:40;;;;;;;5.43;3.25;;;;;;;8.61;47.40;94255.91;5104328;28;20032;-75
2023/03/09 02:39:14;;;;;;;7.78;3.88;;;;;;;8.57;47.33;94252.50;5103689;28;20583;-75
2023/03/09 02:41:39;;;;;;;6.13;3.88;;;;;;;8.53;47.51;94254.56;5105091;28;20040;-74
2023/03/09 02:44:05;;;;;;;7.07;4.65;;;;;;;8.56;47.88;94272.88;5103574;28;20754;-74
2023/03/09 02:46:30;;;;;;;7.32;4.00;;;;;;;8.53;47.68;94254.56;5103798;28;20102;-75
2023/03/09 02:48:55;;;;;;;8.98;4.65;;;;;;;8.56;47.90;94261.91;5104462;28;20036;-75
2023/03/09 02:51:21;;;;;;;6.32;4.10;;;;;;;8.50;47.81;94247.25;5085673;28;20047;-74
2023/03/09 02:53:46;;;;;;;5.65;4.05;;;;;;;8.54;47.98;94269.78;5105536;28;20023;-75
2023/03/09 02:56:12;;;;;;;7.68;4.18;;;;;;;8.56;47.76;94261.16;5101681;28;20104;-74
2023/03/09 02:58:37;;;;;;;6.88;3.50;;;;;;;8.54;47.80;94253.34;5088574;28;20491;-74
2023/03/09 03:01:03;;;;;;;6.78;3.80;;;;;;;8.54;47.68;94256.09;5106681;28;20110;-74
2023/03/09 03:03:28;;;;;;;6.18;3.60;;;;;;;8.55;47.77;94254.91;5107671;28;20031;-76
2023/03/09 03:05:54;;;;;;;7.38;3.70;;;;;;;8.58;47.91;94261.47;5105906;28;20022;-74
2023/03/09 03:08:19;;;;;;;7.30;3.63;;;;;;;8.56;47.71;94247.47;5106645;28;20039;-75
2023/03/09 03:10:44;;;;;;;6.22;3.83;;;;;;;8.66;47.57;94260.81;5106812;28;20032;-74
2023/03/09 03:13:10;;;;;;;7.63;4.28;;;;;;;8.66;47.19;94271.00;5106933;28;20518;-74
2023/03/09 03:15:35;;;;;;;8.85;3.97;;;;;;;8.61;47.32;94275.06;5107463;28;20024;-74
2023/03/09 03:18:01;;;;;;;7.75;4.10;;;;;;;8.55;47.66;94270.59;5106331;28;20030;-75
2023/03/09 03:20:26;;;;;;;5.55;3.38;;;;;;;8.49;47.65;94284.06;5108888;28;20409;-75
2023/03/09 03:22:52;;;;;;;5.75;2.83;;;;;;;8.40;47.86;94287.44;5105105;28;20022;-75
2023/03/09 03:25:18;;;;;;;5.35;2.63;;;;;;;8.22;48.38;94263.31;5108145;28;20023;-76
2023/03/09 03:27:44;;;;;;;5.65;2.75;;;;;;;8.10;48.59;94277.78;5105902;28;20016;-75
2023/03/09 03:30:11;;;;;;;5.00;3.17;;;;;;;7.98;49.11;94281.25;5107094;28;20023;-76
2023/03/09 03:32:36;;;;;;;4.68;2.70;;;;;;;7.97;49.21;94277.75;5090545;28;20074;-75
2023/03/09 03:35:02;;;;;;;5.45;3.55;;;;;;;8.05;48.90;94286.53;5087417;28;20035;-74
2023/03/09 03:37:27;;;;;;;5.13;3.33;;;;;;;8.06;48.71;94284.56;5089971;28;20061;-75
2023/03/09 03:39:53;;;;;;;6.13;3.00;;;;;;;8.06;48.97;94290.78;5104630;28;20677;-74
2023/03/09 03:42:18;;;;;;;5.32;3.42;;;;;;;8.07;48.94;94280.59;5106330;28;20543;-75
2023/03/09 03:44:44;;;;;;;5.95;3.72;;;;;;;8.07;48.88;94269.66;5105163;28;20049;-75
2023/03/09 03:47:09;;;;;;;5.55;4.00;;;;;;;8.15;48.87;94287.41;5105947;28;20028;-75
2023/03/09 03:49:35;;;;;;;13.38;4.82;;;;;;;8.16;48.82;94278.00;5105838;28;20118;-75
2023/03/09 03:52:00;;;;;;;5.72;3.45;;;;;;;8.13;48.88;94287.84;5105194;28;20080;-75
2023/03/09 03:54:25;;;;;;;6.07;3.55;;;;;;;8.16;48.87;94275.25;5107502;28;20030;-75
2023/03/09 03:56:51;;;;;;;7.82;3.40;;;;;;;8.19;48.90;94272.41;5104396;28;20540;-74
2023/03/09 03:59:17;;;;;;;6.43;3.22;;;;;;;8.25;48.80;94283.56;5106355;28;20028;-74
2023/03/09 04:01:43;;;;;;;10.75;4.32;;;;;;;8.16;48.85;94258.84;5104464;28;20081;-75
2023/03/09 04:04:08;;;;;;;7.32;4.07;;;;;;;8.17;49.15;94279.53;5107319;28;20044;-75
2023/03/09 04:06:33;;;;;;;9.00;4.40;;;;;;;8.07;49.21;94266.91;5104899;28;20016;-74
2023/03/09 04:08:59;;;;;;;9.40;4.75;;;;;;;8.13;49.19;94282.38;5105121;28;20035;-74
2023/03/09 04:11:25;;;;;;;8.25;5.65;;;;;;;8.11;49.35;94279.31;5088154;28;20527;-75
2023/03/09 04:13:50;;;;;;;9.77;4.65;;;;;;;8.10;49.35;94283.25;5087334;28;20055;-74
2023/03/09 04:16:16;;;;;;;7.15;4.47;;;;;;;8.13;49.33;94278.84;5089209;28;20030;-74
2023/03/09 04:18:42;;;;;;;8.30;4.85;;;;;;;8.06;49.30;94262.66;5087028;28;20039;-74
2023/03/09 04:21:07;;;;;;;11.30;4.72;;;;;;;8.05;49.35;94266.59;5106140;28;20472;-75
2023/03/09 04:23:33;;;;;;;8.90;4.60;;;;;;;7.99;49.68;94274.59;5103465;28;20426;-75
2023/03/09 04:26:04;;;;;;;13.45;5.13;;;;;;;7.92;49.77;94250.16;5105708;28;20016;-76
2023/03/09 04:28:29;;;;;;;10.10;4.78;;;;;;;7.96;49.76;94261.75;5104914;28;20023;-74
2023/03/09 04:30:54;;;;;;;11.50;5.10;;;;;;;7.92;49.89;94266.59;5087752;28;20093;-75
2023/03/09 04:33:20;;;;;;;9.68;4.80;;;;;;;7.95;49.92;94262.97;5106883;28;20023;-76
2023/03/09 04:35:46;;;;;;;9.18;5.00;;;;;;;7.93;50.01;94257.16;5104893;28;20027;-75
2023/03/09 04:38:12;;;;;;;6.82;4.60;;;;;;;7.92;49.71;94250.94;5088776;28;20401;-75
2023/03/09 04:40:37;;;;;;;6.82;5.03;;;;;;;7.88;50.30;94258.47;5086659;28;20571;-76
2023/03/09 04:43:03;;;;;;;10.40;5.65;;;;;;;7.90;50.20;94244.34;5107305;28;20031;-75
2023/03/09 04:45:29;;;;;;;12.43;5.70;;;;;;;7.86;50.25;94243.69;5105412;28;20522;-76
2023/03/09 04:47:54;;;;;;;12.40;6.53;;;;;;;7.88;50.12;94233.06;5104974;28;20034;-76
2023/03/09 04:50:20;;;;;;;13.18;6.30;;;;;;;7.86;50.43;94247.19;5104899;28;20020;-76
2023/03/09 04:52:45;;;;;;;9.15;5.43;;;;;;;7.82;50.63;94254.75;5086982;28;20031;-76
2023/03/09 04:55:11;;;;;;;10.75;6.00;;;;;;;7.85;50.25;94247.63;5107137;28;20035;-76
2023/03/09 04:57:36;;;;;;;8.90;5.88;;;;;;;7.82;50.58;94253.97;5103576;28;20028;-77
2023/03/09 05:00:04;;;;;;;10.40;5.80;;;;;;;7.78;50.46;94242.34;5088524;28;20046;-76
2023/03/09 05:02:30;;;;;;;9.02;5.57;;;;;;;7.63;50.58;94229.09;5086327;28;20035;-75
2023/03/09 05:04:55;;;;;;;9.57;7.35;;;;;;;7.73;50.60;94241.69;5105259;28;20051;-76
2023/03/09 05:07:21;;;;;;;14.27;7.45;;;;;;;7.72;50.59;94248.38;5104036;28;20024;-76
2023/03/09 05:09:47;;;;;;;15.90;8.25;;;;;;;7.70;50.31;94241.81;5087100;28;20035;-76
2023/03/09 05:12:12;;;;;;;15.48;7.57;;;;;;;7.73;50.58;94246.41;5088249;28;20043;-76
2023/03/09 05:14:38;;;;;;;14.65;6.80;;;;;;;7.79;50.51;94258.34;5104823;28;20106;-75
2023/03/09 05:17:03;;;;;;;10.65;6.70;;;;;;;7.78;50.74;94245.84;5105262;28;20035;-75
2023/03/09 05:19:29;;;;;;;13.60;8.50;;;;;;;7.67;50.61;94232.47;5102646;28;20027;-74
2023/03/09 05:21:54;;;;;;;15.02;9.38;;;;;;;7.73;50.74;94238.94;5103956;28;20143;-76
2023/03/09 05:24:20;;;;;;;13.10;9.05;;;;;;;7.66;50.83;94241.91;5103421;28;20023;-76
2023/03/09 05:26:45;;;;;;;15.98;9.77;;;;;;;7.55;51.05;94224.25;5104181;28;20023;-75
2023/03/09 05:29:10;;;;;;;14.20;9.18;;;;;;;7.66;51.04;94235.66;5103942;28;20032;-76
2023/03/09 05:31:36;;;;;;;12.75;9.10;;;;;;;7.66;50.85;94241.13;5103160;28;20035;-76
2023/03/09 05:34:01;;;;;;;15.73;8.82;;;;;;;7.69;51.01;94257.47;5087658;28;20020;-74
2023/03/09 05:36:27;;;;;;;10.20;7.05;;;;;;;7.72;50.80;94266.75;5085137;28;20039;-74
2023/03/09 05:38:53;;;;;;;14.25;6.85;;;;;;;7.71;50.84;94259.75;5104640;28;20107;-74
2023/03/09 05:41:19;;;;;;;12.27;7.80;;;;;;;7.71;51.20;94265.22;5103128;28;20041;-74
2023/03/09 05:43:45;;;;;;;11.50;8.30;;;;;;;7.82;50.73;94268.44;5104243;28;20470;-75
2023/03/09 05:46:12;;;;;;;14.25;8.70;;;;;;;7.89;50.51;94273.69;5103247;28;20028;-75
2023/03/09 05:48:38;;;;;;;13.45;7.15;;;;;;;7.91;50.38;94270.50;5103231;28;20035;-74
2023/03/09 05:51:04;;;;;;;17.45;7.80;;;;;;;7.87;50.34;94265.16;5104346;28;20095;-75
2023/03/09 05:53:30;;;;;;;17.40;8.93;;;;;;;7.86;50.34;94277.31;5102311;28;20092;-74
2023/03/09 05:55:57;;;;;;;15.55;8.40;;;;;;;7.89;50.13;94272.91;5104596;28;20034;-75
2023/03/09 05:58:22;;;;;;;14.88;8.02;;;;;;;7.95;50.19;94282.13;5102425;28;20051;-75
2023/03/09 06:00:48;;;;;;;17.13;8.07;;;;;;;8.01;50.02;94282.34;5104413;28;20478;-75
2023/03/09 06:03:13;;;;;;;13.20;7.72;;;;;;;8.08;49.91;94293.84;5085741;28;20023;-75
2023/03/09 06:05:39;;;;;;;13.85;7.65;;;;;;;8.08;49.90;94288.38;5104901;28;20028;-75
2023/03/09 06:08:04;;;;;;;13.77;7.30;;;;;;;8.17;49.61;94295.97;5104760;28;20470;-75
2023/03/09 06:10:30;;;;;;;11.85;8.27;;;;;;;8.24;49.46;94299.25;5106810;28;20132;-74
2023/03/09 06:12:55;;;;;;;15.10;7.75;;;;;;;8.33;49.24;94298.59;5107287;28;20492;-76
2023/03/09 06:15:21;;;;;;;11.60;7.45;;;;;;;8.42;48.98;94298.72;5105903;28;20023;-74
2023/03/09 06:17:46;;;;;;;12.75;7.47;;;;;;;8.46;48.83;94296.66;5106147;28;20032;-75
2023/03/09 06:20:12;;;;;;;12.88;7.40;;;;;;;8.60;48.55;94295.47;5102614;28;20035;-75
2023/03/09 06:22:39;;;;;;;12.50;7.32;;;;;;;8.72;48.04;94280.97;5103882;28;20809;-74
2023/03/09 06:25:05;;;;;;;15.95;8.25;;;;;;;8.87;47.71;94294.97;5104392;28;20059;-74
2023/03/09 06:27:35;;;;;;;15.80;7.22;;;;;;;8.98;47.49;94284.44;5104528;28;20031;-75
2023/03/09 06:30:01;;;;;;;10.23;6.75;;;;;;;9.08;47.25;94279.81;5104002;28;20114;-74
2023/03/09 06:32:26;;;;;;;11.10;7.03;;;;;;;9.20;47.08;94286.47;5085190;28;20122;-74
2023/03/09 06:34:52;;;;;;;13.75;7.20;;;;;;;9.31;46.82;94286.88;5090842;28;20161;-76
2023/03/09 06:37:17;;;;;;;11.75;6.57;;;;;;;9.42;46.44;94297.47;5105919;28;20432;-75
2023/03/09 06:39:43;;;;;;;12.07;7.32;;;;;;;9.51;46.58;94297.53;5109103;28;20105;-76
2023/03/09 06:42:08;;;;;;;14.13;7.47;;;;;;;9.61;46.15;94287.41;5106138;28;20063;-75
2023/03/09 06:44:33;;;;;;;10.55;6.95;;;;;;;9.58;46.10;94284.34;5107680;28;20024;-74
2023/03/09 06:46:59;;;;;;;10.68;7.20;;;;;;;9.71;45.93;94287.03;5106951;28;20027;-74
2023/03/09 06:49:24;;;;;;;13.32;7.40;;;;;;;9.75;45.83;94271.22;5107976;27;20107;-75
2023/03/09 06:51:50;;;;;;;13.05;7.55;;;;;;;9.85;45.77;94275.53;5107638;28;20032;-74
2023/03/09 06:54:15;;;;;;;13.77;8.20;;;;;;;9.93;45.74;94289.00;5106000;28;20441;-73
2023/03/09 06:56:41;;;;;;;12.32;7.95;;;;;;;10.00;45.37;94283.25;5109022;28;20031;-76
2023/03/09 06:59:06;;;;;;;15.43;8.57;;;;;;;10.09;45.21;94275.84;5088754;28;20028;-78
2023/03/09 07:01:33;;;;;;;21.80;8.18;;;;;;;10.24;44.77;94269.81;5107395;28;20030;-74
2023/03/09 07:03:59;;;;;;;14.23;7.97;;;;;;;10.32;44.49;94265.56;5107381;28;20028;-75
2023/03/09 07:06:24;;;;;;;12.80;7.97;;;;;;;10.43;44.24;94270.66;5107967;28;20042;-75
2023/03/09 07:08:49;;;;;;;12.02;7.90;;;;;;;10.44;44.39;94267.50;5106654;28;20105;-75
2023/03/09 07:11:15;;;;;;;14.98;8.70;;;;;;;10.54;44.16;94271.78;5107194;27;20035;-76
2023/03/09 07:13:40;;;;;;;19.75;11.27;;;;;;;10.70;43.94;94264.50;5108434;28;20475;-74
2023/03/09 07:16:06;;;;;;;19.02;11.52;;;;;;;10.80;43.63;94269.59;5105149;28;20050;-77
2023/03/09 07:18:32;;;;;;;20.50;11.18;;;;;;;11.01;43.31;94272.66;5107574;28;20108;-75
2023/03/09 07:21:02;;;;;;;18.20;11.73;;;;;;;11.12;43.17;94262.00;5105212;28;20182;-75
2023/03/09 07:23:29;;;;;;;21.27;11.65;;;;;;;11.31;42.74;94274.56;5089652;28;20039;-76
2023/03/09 07:25:54;;;;;;;22.63;11.88;;;;;;;11.46;42.71;94279.44;5105806;28;20032;-76
2023/03/09 07:28:20;;;;;;;19.63;12.40;;;;;;;11.56;42.50;94265.25;5105587;28;20501;-75
2023/03/09 07:30:45;;;;;;;17.65;11.77;;;;;;;11.74;42.13;94275.47;5106837;28;20024;-75
2023/03/09 07:33:10;;;;;;;18.73;12.25;;;;;;;11.87;42.02;94280.84;5106152;28;20024;-75
2023/03/09 07:35:39;;;;;;;16.75;10.05;;;;;;;12.01;42.16;94274.72;5106952;28;20027;-76
2023/03/09 07:38:04;;;;;;;20.42;11.05;;;;;;;12.13;41.84;94279.28;5104281;28;20051;-75
2023/03/09 07:40:30;;;;;;;16.00;9.13;;;;;;;12.09;42.03;94269.63;5107918;28;20391;-75
2023/03/09 07:42:55;;;;;;;16.80;8.43;;;;;;;12.01;41.98;94268.44;5105120;28;20031;-75
2023/03/09 07:45:21;;;;;;;15.07;8.00;;;;;;;11.96;42.19;94273.34;5106424;28;20102;-75
2023/03/09 07:47:47;;;;;;;12.13;8.10;;;;;;;12.04;42.22;94265.50;5105853;28;20039;-74
2023/03/09 07:50:13;;;;;;;12.93;7.85;;;;;;;12.17;42.50;94273.63;5104649;28;20043;-75
2023/03/09 07:52:38;;;;;;;12.07;7.85;;;;;;;12.31;41.96;94258.41;5089546;28;20024;-75
2023/03/09 07:55:04;;;;;;;16.38;7.55;;;;;;;12.58;41.70;94265.81;5105742;28;20020;-75
2023/03/09 07:57:32;;;;;;;11.55;7.95;;;;;;;12.78;41.37;94263.25;5106380;28;20023;-75
2023/03/09 07:59:58;;;;;;;13.85;8.13;;;;;;;12.96;41.00;94262.41;5104207;28;20188;-75
2023/03/09 08:02:23;;;;;;;15.60;8.02;;;;;;;12.99;40.80;94259.47;5088807;28;20032;-75
2023/03/09 08:04:49;;;;;;;16.33;8.80;;;;;;;13.15;40.75;94271.34;5088348;28;20031;-76
2023/03/09 08:07:15;;;;;;;11.75;7.47;;;;;;;13.25;40.17;94261.81;5105229;28;20351;-75
2023/03/09 08:09:40;;;;;;;12.85;7.82;;;;;;;13.49;39.72;94270.84;5088864;28;20034;-75
2023/03/09 08:12:06;;;;;;;13.35;7.60;;;;;;;13.76;39.33;94277.34;5105564;28;20027;-76
2023/03/09 08:14:31;;;;;;;15.85;7.93;;;;;;;13.99;39.13;94273.81;5106426;28;20084;-76
2023/03/09 08:16:57;;;;;;;13.27;7.45;;;;;;;14.13;38.83;94274.28;5104177;28;20031;-75
2023/03/09 08:19:22;;;;;;;13.02;6.93;;;;;;;14.25;38.69;94265.69;5106112;28;20031;-75
2023/03/09 08:21:48;;;;;;;14.05;7.03;;;;;;;14.39;38.45;94266.16;5104561;28;20040;-75
2023/03/09 08:24:14;;;;;;;14.10;7.95;;;;;;;14.64;37.71;94267.63;5105013;28;20038;-76
2023/03/09 08:26:41;;;;;;;11.45;7.00;;;;;;;14.90;37.07;94262.97;5088586;28;20024;-76
2023/03/09 08:29:07;;;;;;;10.05;6.47;;;;;;;15.21;36.30;94264.41;5103873;28;20123;-76
2023/03/09 08:31:34;;;;;;;11.45;6.28;;;;;;;15.43;36.17;94256.41;5106045;28;20016;-76
2023/03/09 08:34:00;;;;;;;11.13;6.50;;;;;;;15.73;36.05;94253.50;5103890;28;20032;-75
2023/03/09 08:36:25;;;;;;;16.42;7.20;;;;;;;16.02;35.56;94239.44;5107028;28;20023;-74
2023/03/09 08:38:51;;;;;;;11.98;7.85;;;;;;;16.32;34.37;94244.75;5105236;28;20547;-75
2023/03/09 08:41:17;;;;;;;19.85;7.35;;;;;;;16.69;34.09;94248.34;5087924;28;20047;-76
2023/03/09 08:43:42;;;;;;;13.93;8.10;;;;;;;16.92;33.61;94243.72;5106032;28;20032;-75
2023/03/09 08:46:08;;;;;;;18.98;7.28;;;;;;;17.29;33.47;94229.03;5104312;28;20035;-78
2023/03/09 08:48:34;;;;;;;11.98;4.40;;;;;;;17.44;32.24;94232.41;5086832;28;20122;-76
2023/03/09 08:51:01;;;;;;;8.23;4.00;;;;;;;17.45;32.14;94238.72;5103058;28;20454;-75
2023/03/09 08:53:26;;;;;;;7.93;4.30;;;;;;;17.63;31.43;94235.50;5088080;28;20490;-75
2023/03/09 08:55:52;;;;;;;11.27;6.13;;;;;;;17.72;31.34;94240.88;5103513;28;20051;-76
2023/03/09 08:58:17;;;;;;;10.27;6.70;;;;;;;17.84;31.28;94235.34;5106254;28;20038;-76
2023/03/09 09:00:42;;;;;;;8.45;6.30;;;;;;;17.89;31.73;94238.16;5105805;28;20016;-75
2023/03/09 09:03:08;;;;;;;13.85;7.82;;;;;;;17.84;31.38;94229.78;5105677;28;20152;-75
2023/03/09 09:05:35;;;;;;;12.52;7.57;;;;;;;17.93;31.10;94227.53;5104551;28;20031;-76
2023/03/09 09:08:00;;;;;;;10.85;6.88;;;;;;;17.89;31.10;94221.47;5105153;28;20031;-75
2023/03/09 09:10:26;;;;;;;11.02;7.13;;;;;;;17.83;31.45;94206.75;5106610;28;20023;-76
2023/03/09 09:12:51;;;;;;;12.50;7.13;;;;;;;17.86;31.27;94216.13;5103458;28;20028;-76
2023/03/09 09:15:17;;;;;;;13.40;8.10;;;;;;;17.92;31.08;94220.44;5106043;28;20032;-76
2023/03/09 09:17:42;;;;;;;15.68;7.07;;;;;;;17.98;30.65;94204.53;5103199;28;20077;-76
2023/03/09 09:20:09;;;;;;;10.55;6.18;;;;;;;18.07;30.69;94209.09;5106229;28;20032;-75
2023/03/09 09:22:35;;;;;;;10.95;6.28;;;;;;;18.03;30.50;94205.81;5103338;28;20034;-75
2023/03/09 09:25:00;;;;;;;13.27;6.78;;;;;;;18.17;30.61;94207.59;5105322;28;20102;-75
2023/03/09 09:27:26;;;;;;;13.40;5.90;;;;;;;18.34;30.50;94196.47;5104305;28;20118;-76
2023/03/09 09:29:52;;;;;;;10.10;5.85;;;;;;;18.60;29.77;94199.00;5103121;28;20375;-75
2023/03/09 09:32:18;;;;;;;11.80;6.40;;;;;;;18.75;29.82;94202.31;5104702;28;20060;-77
2023/03/09 09:34:44;;;;;;;6.65;4.80;;;;;;;18.87;29.51;94185.56;5102934;28;20039;-76
2023/03/09 09:37:11;;;;;;;6.35;3.67;;;;;;;19.17;28.97;94188.56;5105905;28;20072;-76
2023/03/09 09:39:37;;;;;;;7.72;4.07;;;;;;;19.53;28.22;94181.81;5105364;28;20082;-76
2023/03/09 09:42:12;;;;;;;9.38;4.78;;;;;;;19.97;28.08;94173.78;5089547;28;20043;-76
2023/03/09 09:44:41;;;;;;;9.05;4.80;;;;;;;20.30;27.78;94186.72;5089865;28;20470;-76
2023/03/09 09:47:12;;;;;;;8.32;4.95;;;;;;;20.71;27.27;94174.75;5086398;28;20107;-76
2023/03/09 09:49:46;;;;;;;8.57;4.30;;;;;;;21.21;26.65;94179.81;5104951;28;20098;-77
2023/03/09 09:52:35;;;;;;;6.20;2.20;;;;;;;21.56;26.52;94187.31;5103146;28;20120;-77
2023/03/09 09:55:19;;;;;;;2.40;1.33;;;;;;;21.67;25.87;94172.44;5105418;28;20070;-75
2023/03/09 09:58:01;;;;;;;4.82;1.90;;;;;;;22.08;25.59;94172.13;5105642;28;20028;-77
2023/03/09 10:00:37;;;;;;;3.13;1.17;;;;;;;22.44;24.87;94174.69;5085633;28;20155;-77
2023/03/09 10:03:37;;;;;;;2.70;1.30;;;;;;;22.76;24.41;94155.78;5088136;28;20123;-76
2023/03/09 10:06:16;;;;;;;3.75;1.45;;;;;;;23.09;24.15;94166.97;5086529;28;20455;-77
2023/03/09 10:08:55;;;;;;;1.83;1.25;;;;;;;22.93;23.89;94161.13;5104375;28;20088;-77
2023/03/09 10:11:28;;;;;;;3.03;1.30;;;;;;;22.98;23.91;94154.66;5108601;28;20023;-76
2023/03/09 10:13:57;;;;;;;2.85;0.95;;;;;;;23.32;23.30;94140.75;5106617;28;20501;-77
2023/03/09 10:16:26;;;;;;;2.90;1.10;;;;;;;23.58;23.50;94136.44;5109490;28;20024;-76
2023/03/09 10:18:55;;;;;;;3.70;1.25;;;;;;;24.07;22.95;94128.22;5107358;28;20064;-76
2023/03/09 10:21:42;;;;;;;3.25;1.30;;;;;;;24.48;22.44;94129.56;5106980;28;20028;-75
2023/03/09 10:24:22;;;;;;;4.55;1.27;;;;;;;24.72;22.44;94125.69;5091277;28;20032;-75
2023/03/09 10:26:57;;;;;;;1.70;1.05;;;;;;;25.46;21.59;94128.03;5105821;28;20024;-75
2023/03/09 10:29:31;;;;;;;3.55;1.13;;;;;;;25.92;20.84;94123.41;5107783;28;20023;-75
2023/03/09 10:32:03;;;;;;;4.03;1.52;;;;;;;25.89;20.72;94118.13;5107069;28;20155;-76
2023/03/09 10:34:29;;;;;;;3.67;0.85;;;;;;;26.06;20.44;94112.75;5089588;28;20478;-77
2023/03/09 10:37:01;;;;;;;3.10;1.08;;;;;;;25.67;21.03;94120.28;5090771;28;20054;-77
2023/03/09 10:39:31;;;;;;;4.13;1.20;;;;;;;25.91;20.57;94105.00;5088830;28;20027;-75
2023/03/09 10:41:59;;;;;;;1.50;1.02;;;;;;;26.24;20.11;94099.63;5090607;28;20043;-75
2023/03/09 10:44:25;;;;;;;3.25;1.05;;;;;;;26.20;20.29;94104.88;5106650;28;20110;-76
2023/03/09 10:46:59;;;;;;;2.13;1.05;;;;;;;26.29;20.38;94101.53;5106952;28;20110;-76
2023/03/09 10:49:26;;;;;;;1.70;0.88;;;;;;;26.38;19.89;94095.34;5107116;28;20024;-74
2023/03/09 10:52:05;;;;;;;3.38;0.93;;;;;;;27.43;19.07;94103.56;5088842;28;20058;-75
2023/03/09 10:54:39;;;;;;;2.05;1.02;;;;;;;28.04;18.24;94075.13;5107939;28;20035;-77
2023/03/09 10:57:24;;;;;;;4.78;1.90;;;;;;;29.67;17.20;94056.94;5088597;28;20031;-75
2023/03/09 10:59:58;;;;;;;1.73;1.05;;;;;;;30.73;16.08;94067.41;5107023;28;20062;-77
2023/03/09 11:02:30;;;;;;;3.80;1.10;;;;;;;31.15;15.32;94050.78;5089705;28;20523;-76
2023/03/09 11:04:56;;;;;;;2.05;0.88;;;;;;;31.39;15.12;94068.16;5105533;28;20020;-76
2023/03/09 11:07:39;;;;;;;1.25;0.88;;;;;;;31.74;14.69;94062.94;5109097;28;20106;-76
2023/03/09 11:10:20;;;;;;;2.40;0.90;;;;;;;32.42;14.33;94072.13;5105438;28;20037;-76
2023/03/09 11:12:46;;;;;;;1.23;0.90;;;;;;;32.32;14.26;94054.31;5089446;28;20451;-75
2023/03/09 11:15:15;;;;;;;2.25;1.00;;;;;;;32.14;14.39;94050.19;5107971;28;20537;-77
2023/03/09 11:17:43;;;;;;;1.77;0.82;;;;;;;31.35;15.18;94043.03;5107606;28;20057;-77
2023/03/09 11:20:12;;;;;;;2.25;1.00;;;;;;;31.35;15.11;94036.63;5105888;28;20430;-78
2023/03/09 11:23:03;;;;;;;3.03;1.60;;;;;;;32.89;14.43;94032.69;5106420;28;20027;-76
2023/03/09 11:25:40;;;;;;;4.05;1.17;;;;;;;29.66;16.61;94017.91;5108437;28;20567;-77
2023/03/09 11:28:20;;;;;;;4.07;1.40;;;;;;;28.90;17.30;94022.28;5089236;28;20487;-76
2023/03/09 11:30:47;;;;;;;2.33;1.10;;;;;;;28.33;17.73;94015.44;5107161;28;20032;-76
2023/03/09 11:33:15;;;;;;;3.40;1.88;;;;;;;27.04;18.93;94011.88;5108298;28;20035;-75
2023/03/09 11:35:41;;;;;;;4.38;2.17;;;;;;;25.97;20.36;93999.91;5105118;28;20059;-76